Time;durP1;ratioP1;P1;durP2;ratioP2;P2;SDS_P1;SDS_P2;PMS_P1;PMS_P2;Temp;Humidity;BMP_temperature;BMP_pressure;BME280_temperature;BME280_humidity;BME280_pressure;Samples;Min_cycle;Max_cycle;Signal;HPM_P1;HPM_P2
2022/05/04 00:02:24;;;;;;;;;;;10.60;73.20;;;;;;5049063;28;20007;-81
2022/05/04 00:04:50;;;;;;;;;;;10.60;72.90;;;;;;5045733;28;19944;-81
2022/05/04 00:07:15;;;;;;;;;;;10.60;73.30;;;;;;5062072;28;19913;-82
2022/05/04 00:09:41;;;;;;;;;;;10.60;73.60;;;;;;5048774;28;19995;-81
2022/05/04 00:12:06;;;;;;;;;;;10.50;73.90;;;;;;5051094;28;20388;-82
2022/05/04 00:14:32;;;;;;;;;;;10.50;74.00;;;;;;5051467;28;20035;-81
2022/05/04 00:16:57;;;;;;;;;;;10.50;74.20;;;;;;5048220;28;19917;-81
2022/05/04 00:19:23;;;;;;;;;;;10.40;74.00;;;;;;5045789;28;19916;-81
2022/05/04 00:21:48;;;;;;;;;;;10.40;74.60;;;;;;5050827;28;19939;-81
2022/05/04 00:24:16;;;;;;;;;;;10.40;74.50;;;;;;5049644;28;19923;-81
2022/05/04 00:26:41;;;;;;;;;;;10.30;74.90;;;;;;5047412;28;19936;-81
2022/05/04 00:29:07;;;;;;;;;;;10.30;75.00;;;;;;5048242;28;20373;-81
2022/05/04 00:31:32;;;;;;;;;;;10.20;75.00;;;;;;5049317;28;19954;-81
2022/05/04 00:33:58;;;;;;;;;;;10.20;75.40;;;;;;5049674;28;20055;-80
2022/05/04 00:36:23;;;;;;;;;;;10.20;75.20;;;;;;5050239;28;19928;-81
2022/05/04 00:38:48;;;;;;;;;;;10.20;75.10;;;;;;5048940;28;19932;-81
2022/05/04 00:41:14;;;;;;;;;;;10.10;75.00;;;;;;5048291;28;19995;-80
2022/05/04 00:43:39;;;;;;;;;;;10.20;75.20;;;;;;5067299;28;19920;-80
2022/05/04 00:46:05;;;;;;;;;;;10.20;74.40;;;;;;5065253;22;20038;-87
2022/05/04 00:48:45;;;;;;;;;;;10.10;74.60;;;;;;5045311;28;19921;-87
2022/05/04 00:51:11;;;;;;;;;;;10.10;74.50;;;;;;5028085;28;20035;-87
2022/05/04 00:53:51;;;;;;;;;;;9.90;74.70;;;;;;5029276;28;20478;-87
2022/05/04 00:56:17;;;;;;;;;;;9.90;75.00;;;;;;5030715;28;19932;-88
2022/05/04 00:58:54;;;;;;;;;;;9.80;75.20;;;;;;5029763;28;19933;-87
2022/05/04 01:01:32;;;;;;;;;;;9.90;74.70;;;;;;5051497;28;19917;-87
2022/05/04 01:04:09;;;;;;;;;;;9.70;75.30;;;;;;5031707;28;20055;-86
2022/05/04 01:07:00;;;;;;;;;;;;;;;;;;;;;
2022/05/04 01:12:38;;;;;;;;;;;9.70;75.80;;;;;;5019749;28;19939;-87
2022/05/04 01:15:03;;;;;;;;;;;10.00;74.70;;;;;;5050928;28;19905;-86
2022/05/04 01:17:29;;;;;;;;;;;10.00;74.70;;;;;;5037960;28;19959;-87
2022/05/04 01:19:59;;;;;;;;;;;9.90;74.60;;;;;;5033849;28;19913;-87
2022/05/04 01:22:24;;;;;;;;;;;9.80;74.70;;;;;;5041005;28;19913;-87
2022/05/04 01:24:50;;;;;;;;;;;9.60;75.20;;;;;;5022829;28;20327;-87
2022/05/04 01:27:22;;;;;;;;;;;9.80;74.80;;;;;;5038460;28;19917;-86
2022/05/04 01:29:57;;;;;;;;;;;10.00;74.60;;;;;;5025124;28;19913;-87
2022/05/04 01:32:46;;;;;;;;;;;9.70;74.90;;;;;;5044493;28;20016;-87
2022/05/04 01:38:47;;;;;;;;;;;9.60;76.10;;;;;;5030981;28;19917;-87
2022/05/04 01:44:33;;;;;;;;;;;9.60;75.40;;;;;;5019771;28;19955;-87
2022/05/04 01:47:24;;;;;;;;;;;9.50;76.20;;;;;;5043547;28;20485;-87
2022/05/04 01:49:53;;;;;;;;;;;9.40;76.30;;;;;;5018555;28;19917;-87
2022/05/04 01:52:19;;;;;;;;;;;9.50;76.20;;;;;;5025096;28;19913;-86
2022/05/04 01:54:53;;;;;;;;;;;9.50;75.60;;;;;;5042639;28;20240;-87
2022/05/04 01:57:32;;;;;;;;;;;9.50;75.90;;;;;;5011949;28;20069;-87
2022/05/04 02:00:19;;;;;;;;;;;9.40;76.20;;;;;;5044449;28;19920;-87
2022/05/04 02:05:48;;;;;;;;;;;9.30;76.80;;;;;;5022645;28;19921;-87
2022/05/04 02:08:17;;;;;;;;;;;9.20;76.60;;;;;;5043878;28;19913;-87
2022/05/04 02:11:15;;;;;;;;;;;9.20;76.70;;;;;;5040787;28;19913;-87
2022/05/04 02:13:50;;;;;;;;;;;9.10;77.20;;;;;;5015427;28;19925;-87
2022/05/04 02:16:18;;;;;;;;;;;9.10;77.30;;;;;;5043815;28;19919;-88
2022/05/04 02:18:46;;;;;;;;;;;9.30;76.40;;;;;;5049288;28;19913;-88
2022/05/04 02:21:14;;;;;;;;;;;9.10;76.60;;;;;;5024465;28;19959;-88
2022/05/04 02:23:40;;;;;;;;;;;9.00;77.60;;;;;;5044133;28;19917;-88
2022/05/04 02:26:32;;;;;;;;;;;8.90;77.30;;;;;;5044690;28;19928;-88
2022/05/04 02:29:05;;;;;;;;;;;8.90;77.60;;;;;;5018488;28;19914;-87
2022/05/04 02:31:41;;;;;;;;;;;9.00;77.40;;;;;;5036083;28;20016;-87
2022/05/04 02:39:42;;;;;;;;;;;8.80;77.70;;;;;;5023788;28;20232;-88
2022/05/04 02:42:16;;;;;;;;;;;8.80;77.50;;;;;;5034941;28;20410;-87
2022/05/04 02:44:42;;;;;;;;;;;8.70;77.50;;;;;;5021211;28;19921;-88
2022/05/04 02:47:13;;;;;;;;;;;8.80;77.60;;;;;;5044500;28;20014;-88
2022/05/04 02:49:47;;;;;;;;;;;8.80;77.10;;;;;;5043374;28;19917;-88
2022/05/04 02:52:18;;;;;;;;;;;8.70;77.70;;;;;;5029274;28;20005;-88
2022/05/04 02:54:49;;;;;;;;;;;8.70;78.30;;;;;;5021368;28;20374;-87
2022/05/04 02:57:37;;;;;;;;;;;;;;;;;;;;;
2022/05/04 03:00:13;;;;;;;;;;;;;;;;;;;;;
2022/05/04 03:03:26;;;;;;;;;;;8.60;78.10;;;;;;5016028;28;19914;-87
2022/05/04 03:06:02;;;;;;;;;;;8.60;77.90;;;;;;4952757;28;19920;-87
2022/05/04 03:08:49;;;;;;;;;;;8.60;77.90;;;;;;4969664;28;19940;-88
2022/05/04 03:14:30;;;;;;;;;;;8.60;77.40;;;;;;5025873;28;20009;-88
2022/05/04 03:16:56;;;;;;;;;;;8.50;78.20;;;;;;5019110;28;20312;-88
2022/05/04 03:19:28;;;;;;;;;;;8.50;78.80;;;;;;5043680;28;19928;-88
2022/05/04 03:22:32;;;;;;;;;;;;;;;;;;;;;
2022/05/04 03:25:05;;;;;;;;;;;8.40;79.40;;;;;;5019560;28;19941;-87
2022/05/04 03:27:37;;;;;;;;;;;8.50;78.60;;;;;;5045567;28;20028;-87
2022/05/04 03:30:08;;;;;;;;;;;8.50;78.30;;;;;;5026450;28;20444;-87
2022/05/04 03:32:45;;;;;;;;;;;8.60;77.90;;;;;;5020648;28;20037;-87
2022/05/04 03:35:40;;;;;;;;;;;8.60;77.50;;;;;;5021971;28;19945;-87
2022/05/04 03:38:21;;;;;;;;;;;8.60;77.30;;;;;;5013591;28;19917;-87
2022/05/04 03:40:47;;;;;;;;;;;8.50;77.90;;;;;;5018363;28;19920;-88
2022/05/04 03:43:22;;;;;;;;;;;8.50;78.10;;;;;;5042637;28;19913;-88
2022/05/04 03:46:25;;;;;;;;;;;8.40;77.90;;;;;;5045106;28;19944;-88
2022/05/04 03:49:08;;;;;;;;;;;8.20;78.20;;;;;;5010151;28;19925;-89
2022/05/04 03:55:06;;;;;;;;;;;8.10;79.30;;;;;;5024006;28;20341;-88
2022/05/04 03:58:13;;;;;;;;;;;;;;;;;;;;;
2022/05/04 04:01:01;;;;;;;;;;;;;;;;;;;;;
2022/05/04 04:03:35;;;;;;;;;;;8.00;79.60;;;;;;5025890;28;19914;-87
2022/05/04 04:06:32;;;;;;;;;;;8.10;79.80;;;;;;5041553;28;19933;-87
2022/05/04 04:09:07;;;;;;;;;;;8.20;79.70;;;;;;5042163;28;19909;-87
2022/05/04 04:11:50;;;;;;;;;;;8.30;78.70;;;;;;5049533;28;19913;-88
2022/05/04 04:14:21;;;;;;;;;;;8.30;78.00;;;;;;5037673;28;19929;-88
2022/05/04 04:16:50;;;;;;;;;;;8.30;78.90;;;;;;5056316;28;19974;-88
2022/05/04 04:19:18;;;;;;;;;;;8.40;78.70;;;;;;5053174;28;19920;-88
2022/05/04 04:21:59;;;;;;;;;;;8.30;78.80;;;;;;5027223;28;20299;-87
2022/05/04 04:27:25;;;;;;;;;;;8.30;78.20;;;;;;4994938;28;20013;-88
2022/05/04 04:29:50;;;;;;;;;;;8.10;78.60;;;;;;5032538;28;19913;-87
2022/05/04 04:32:23;;;;;;;;;;;8.10;78.90;;;;;;5031828;28;19967;-88
2022/05/04 04:34:49;;;;;;;;;;;8.10;79.10;;;;;;5029043;28;19921;-88
2022/05/04 04:37:25;;;;;;;;;;;;;;;;;;;;;
2022/05/04 04:40:28;;;;;;;;;;;8.20;79.00;;;;;;5020705;28;20267;-88
2022/05/04 04:43:23;;;;;;;;;;;;;;;;;;;;;
2022/05/04 04:45:51;;;;;;;;;;;8.50;78.10;;;;;;5026750;28;19913;-87
2022/05/04 04:48:38;;;;;;;;;;;;;;;;;;;;;
2022/05/04 04:51:37;;;;;;;;;;;8.60;77.00;;;;;;5027200;28;19927;-85
2022/05/04 04:54:03;;;;;;;;;;;8.50;77.50;;;;;;5025375;28;20337;-85
2022/05/04 04:56:39;;;;;;;;;;;8.40;77.60;;;;;;5046224;28;20023;-86
2022/05/04 04:59:12;;;;;;;;;;;8.70;76.70;;;;;;5044647;28;20411;-83
2022/05/04 05:01:41;;;;;;;;;;;8.60;77.30;;;;;;5048436;28;19913;-84
2022/05/04 05:04:26;;;;;;;;;;;8.50;77.30;;;;;;5045277;28;20011;-82
2022/05/04 05:07:06;;;;;;;;;;;8.70;76.90;;;;;;5028430;28;20376;-83
2022/05/04 05:09:31;;;;;;;;;;;8.80;76.40;;;;;;5033704;28;19920;-84
2022/05/04 05:12:21;;;;;;;;;;;8.80;75.80;;;;;;5046388;28;19913;-84
2022/05/04 05:17:49;;;;;;;;;;;9.00;75.70;;;;;;5022586;28;20335;-83
2022/05/04 05:20:18;;;;;;;;;;;9.10;75.40;;;;;;5042040;28;19913;-83
2022/05/04 05:22:44;;;;;;;;;;;9.20;74.60;;;;;;5028912;28;20296;-84
2022/05/04 05:25:09;;;;;;;;;;;9.20;75.20;;;;;;5041485;28;19917;-84
2022/05/04 05:27:35;;;;;;;;;;;9.30;74.90;;;;;;5024855;28;20356;-84
2022/05/04 05:30:01;;;;;;;;;;;9.20;75.10;;;;;;5044185;28;19920;-85
2022/05/04 05:32:26;;;;;;;;;;;9.40;75.00;;;;;;5031725;28;19928;-89
2022/05/04 05:34:55;;;;;;;;;;;9.40;74.50;;;;;;5047420;28;19936;-82
2022/05/04 05:37:20;;;;;;;;;;;9.60;73.30;;;;;;5045719;28;19917;-83
2022/05/04 05:39:48;;;;;;;;;;;9.70;73.50;;;;;;5026891;28;19921;-83
2022/05/04 05:42:14;;;;;;;;;;;9.70;74.00;;;;;;5050575;28;19949;-83
2022/05/04 05:44:40;;;;;;;;;;;9.80;73.90;;;;;;5053683;28;20816;-83
2022/05/04 05:47:09;;;;;;;;;;;10.10;72.00;;;;;;5049736;28;20339;-83
2022/05/04 05:49:37;;;;;;;;;;;10.10;72.90;;;;;;5032190;28;19937;-83
2022/05/04 05:52:03;;;;;;;;;;;10.30;72.40;;;;;;5046427;28;19986;-85
2022/05/04 05:54:31;;;;;;;;;;;10.50;71.70;;;;;;5026215;28;19978;-86
2022/05/04 05:57:06;;;;;;;;;;;10.50;70.90;;;;;;5033247;28;20016;-84
2022/05/04 05:59:32;;;;;;;;;;;10.60;70.00;;;;;;5069168;28;19968;-83
2022/05/04 06:01:57;;;;;;;;;;;10.40;70.40;;;;;;5018118;28;19913;-84
2022/05/04 06:04:23;;;;;;;;;;;10.20;71.40;;;;;;5039614;28;20008;-84
2022/05/04 06:06:54;;;;;;;;;;;10.40;71.70;;;;;;5046046;28;19925;-85
2022/05/04 06:09:33;;;;;;;;;;;10.50;71.40;;;;;;5036815;28;19924;-86
2022/05/04 06:12:06;;;;;;;;;;;10.90;70.90;;;;;;5024797;28;20387;-84
2022/05/04 06:14:31;;;;;;;;;;;11.30;68.50;;;;;;5027181;28;20275;-85
2022/05/04 06:16:59;;;;;;;;;;;11.30;68.70;;;;;;5043767;28;19910;-86
2022/05/04 06:19:27;;;;;;;;;;;11.60;68.30;;;;;;5030732;28;19913;-85
2022/05/04 06:21:53;;;;;;;;;;;11.60;67.10;;;;;;5038320;28;20292;-82
2022/05/04 06:24:18;;;;;;;;;;;11.50;67.60;;;;;;5037120;28;19913;-84
2022/05/04 06:26:44;;;;;;;;;;;11.30;67.90;;;;;;5051388;28;20406;-82
2022/05/04 06:29:09;;;;;;;;;;;11.20;69.20;;;;;;5023790;28;19929;-84
2022/05/04 06:34:19;;;;;;;;;;;10.80;69.80;;;;;;5024786;28;19932;-89
2022/05/04 06:36:45;;;;;;;;;;;10.80;70.10;;;;;;5046776;28;19909;-84
2022/05/04 06:39:10;;;;;;;;;;;10.60;70.30;;;;;;5041049;28;19978;-83
2022/05/04 06:41:36;;;;;;;;;;;10.60;70.80;;;;;;5049482;28;20432;-83
2022/05/04 06:44:03;;;;;;;;;;;10.50;71.20;;;;;;5024787;28;19948;-82
2022/05/04 06:46:31;;;;;;;;;;;10.40;71.70;;;;;;5062051;22;19948;-84
2022/05/04 06:48:57;;;;;;;;;;;10.40;72.50;;;;;;5062644;28;20022;-84
2022/05/04 06:51:22;;;;;;;;;;;10.50;72.20;;;;;;5059144;28;19913;-82
2022/05/04 06:53:58;;;;;;;;;;;10.40;72.30;;;;;;5052679;28;19948;-84
2022/05/04 06:56:24;;;;;;;;;;;10.40;72.70;;;;;;5047632;28;19913;-88
2022/05/04 06:58:50;;;;;;;;;;;10.50;72.60;;;;;;5048698;28;20153;-83
2022/05/04 07:01:33;;;;;;;;;;;10.60;72.00;;;;;;5083834;27;2007547;-84
2022/05/04 07:03:59;;;;;;;;;;;10.60;71.80;;;;;;5130164;27;20307;-82
2022/05/04 07:06:25;;;;;;;;;;;10.60;72.50;;;;;;5129533;27;19919;-81
2022/05/04 07:08:53;;;;;;;;;;;10.70;72.40;;;;;;5143109;27;20388;-81
2022/05/04 07:11:18;;;;;;;;;;;10.80;71.40;;;;;;5136234;27;19911;-80
2022/05/04 07:13:46;;;;;;;;;;;10.80;71.50;;;;;;5134138;27;19922;-82
2022/05/04 07:16:12;;;;;;;;;;;10.90;71.50;;;;;;5139937;27;19911;-79
2022/05/04 07:18:37;;;;;;;;;;;10.80;71.90;;;;;;5151114;27;19955;-80
2022/05/04 07:21:03;;;;;;;;;;;11.00;71.80;;;;;;5156526;27;19915;-81
2022/05/04 07:23:28;;;;;;;;;;;11.10;71.40;;;;;;5135630;27;19916;-77
2022/05/04 07:25:54;;;;;;;;;;;11.20;71.70;;;;;;5132977;27;19962;-77
2022/05/04 07:28:20;;;;;;;;;;;11.40;71.30;;;;;;5132264;27;19919;-77
2022/05/04 07:30:52;;;;;;;;;;;11.30;71.40;;;;;;5130013;27;20477;-77
2022/05/04 07:33:21;;;;;;;;;;;11.60;70.00;;;;;;5130946;27;19912;-78
2022/05/04 07:35:49;;;;;;;;;;;11.50;69.90;;;;;;5131660;27;19916;-77
2022/05/04 07:38:15;;;;;;;;;;;11.60;70.40;;;;;;5143597;27;19926;-81
2022/05/04 07:43:25;;;;;;;;;;;11.40;70.30;;;;;;5137550;27;20003;-82
2022/05/04 07:45:50;;;;;;;;;;;11.50;71.00;;;;;;5141001;27;19955;-81
2022/05/04 07:48:16;;;;;;;;;;;11.60;71.10;;;;;;5148920;27;19963;-82
2022/05/04 07:50:41;;;;;;;;;;;11.70;70.40;;;;;;5162237;27;19908;-82
2022/05/04 07:53:07;;;;;;;;;;;11.70;70.30;;;;;;5145793;27;19907;-82
2022/05/04 07:55:33;;;;;;;;;;;11.80;71.00;;;;;;5151574;27;20393;-82
2022/05/04 07:57:59;;;;;;;;;;;11.90;69.80;;;;;;5150062;27;19951;-82
2022/05/04 08:05:54;;;;;;;;;;;12.20;69.60;;;;;;5156733;27;19926;-81
2022/05/04 08:08:19;;;;;;;;;;;12.30;69.20;;;;;;5149377;27;19907;-81
2022/05/04 08:10:45;;;;;;;;;;;12.30;68.90;;;;;;5144624;27;19926;-81
2022/05/04 08:13:10;;;;;;;;;;;12.50;68.30;;;;;;5131213;27;19907;-81
2022/05/04 08:15:37;;;;;;;;;;;12.50;68.80;;;;;;5136724;27;19918;-84
2022/05/04 08:18:03;;;;;;;;;;;12.60;67.80;;;;;;5133920;27;19907;-83
2022/05/04 08:20:31;;;;;;;;;;;12.60;68.10;;;;;;5129404;27;19980;-84
2022/05/04 08:22:57;;;;;;;;;;;12.60;68.30;;;;;;5125871;27;20339;-84
2022/05/04 08:25:23;;;;;;;;;;;12.80;67.20;;;;;;5126098;27;19916;-83
2022/05/04 08:27:51;;;;;;;;;;;12.80;67.30;;;;;;5127481;27;20202;-84
2022/05/04 08:30:20;;;;;;;;;;;12.80;67.90;;;;;;5127609;27;19912;-81
2022/05/04 08:32:46;;;;;;;;;;;12.90;67.40;;;;;;5127523;27;19908;-82
2022/05/04 08:35:13;;;;;;;;;;;13.00;67.70;;;;;;5130074;27;19963;-84
2022/05/04 08:37:39;;;;;;;;;;;12.90;68.60;;;;;;5128223;27;19947;-84
2022/05/04 08:40:05;;;;;;;;;;;13.10;68.00;;;;;;5125996;27;19987;-82
2022/05/04 08:42:30;;;;;;;;;;;13.10;67.50;;;;;;5123477;27;19907;-80
2022/05/04 08:44:57;;;;;;;;;;;13.10;67.30;;;;;;5124342;27;19932;-79
2022/05/04 08:47:25;;;;;;;;;;;13.00;67.50;;;;;;5130284;27;19908;-80
2022/05/04 08:49:51;;;;;;;;;;;13.00;68.10;;;;;;5116035;27;19915;-80
2022/05/04 08:52:17;;;;;;;;;;;13.10;67.80;;;;;;5128720;27;20418;-81
2022/05/04 08:54:46;;;;;;;;;;;13.10;67.00;;;;;;5119802;27;19950;-83
2022/05/04 08:57:11;;;;;;;;;;;13.10;67.50;;;;;;5120171;27;19919;-80
2022/05/04 08:59:37;;;;;;;;;;;13.10;67.30;;;;;;5126331;27;19912;-80
2022/05/04 09:02:03;;;;;;;;;;;13.20;67.10;;;;;;5114608;28;19912;-80
2022/05/04 09:04:31;;;;;;;;;;;13.40;66.60;;;;;;5121686;27;19965;-81
2022/05/04 09:07:01;;;;;;;;;;;13.40;66.80;;;;;;5128831;27;19919;-81
2022/05/04 09:09:26;;;;;;;;;;;13.30;67.10;;;;;;5119366;27;19919;-81
2022/05/04 09:11:52;;;;;;;;;;;13.50;66.80;;;;;;5118318;27;19915;-82
2022/05/04 09:14:19;;;;;;;;;;;13.60;67.10;;;;;;5117345;27;19916;-82
2022/05/04 09:16:45;;;;;;;;;;;13.60;67.00;;;;;;5129779;27;19910;-82
2022/05/04 09:19:12;;;;;;;;;;;13.70;65.60;;;;;;5133600;27;19974;-82
2022/05/04 09:21:39;;;;;;;;;;;13.70;66.30;;;;;;5140410;27;19968;-80
2022/05/04 09:24:05;;;;;;;;;;;13.70;65.90;;;;;;5125226;27;19952;-80
2022/05/04 09:26:31;;;;;;;;;;;13.80;67.00;;;;;;5125962;27;20385;-80
2022/05/04 09:28:58;;;;;;;;;;;13.80;67.10;;;;;;5130704;27;19935;-80
2022/05/04 09:31:25;;;;;;;;;;;13.90;67.70;;;;;;5127477;27;19916;-79
2022/05/04 09:33:57;;;;;;;;;;;14.00;65.00;;;;;;5127514;27;20375;-79
2022/05/04 09:36:32;;;;;;;;;;;14.00;65.30;;;;;;5133544;27;19915;-80
2022/05/04 09:44:54;;;;;;;;;;;14.30;65.50;;;;;;5144037;27;19958;-80
2022/05/04 09:47:20;;;;;;;;;;;14.40;64.30;;;;;;5137876;27;19915;-79
2022/05/04 09:49:47;;;;;;;;;;;14.60;63.90;;;;;;5135136;27;19922;-80
2022/05/04 09:52:14;;;;;;;;;;;14.70;63.60;;;;;;5132935;27;19976;-79
2022/05/04 09:54:39;;;;;;;;;;;14.80;65.40;;;;;;5122733;27;19983;-80
2022/05/04 09:57:05;;;;;;;;;;;15.00;63.30;;;;;;5122899;27;19968;-79
2022/05/04 09:59:31;;;;;;;;;;;15.00;63.10;;;;;;5126453;27;19983;-80
2022/05/04 10:01:59;;;;;;;;;;;15.10;64.90;;;;;;5130320;27;20653;-79
2022/05/04 10:04:24;;;;;;;;;;;15.20;62.10;;;;;;5124294;27;20014;-80
2022/05/04 10:06:50;;;;;;;;;;;15.40;63.20;;;;;;5119641;27;19959;-81
2022/05/04 10:09:16;;;;;;;;;;;15.50;62.30;;;;;;5119782;27;19908;-81
2022/05/04 10:11:42;;;;;;;;;;;15.50;60.80;;;;;;5127784;27;19951;-79
2022/05/04 10:14:10;;;;;;;;;;;15.50;60.80;;;;;;5116109;27;19934;-78
2022/05/04 10:16:43;;;;;;;;;;;15.40;60.20;;;;;;5116002;27;19912;-78
2022/05/04 10:19:13;;;;;;;;;;;15.20;61.40;;;;;;5135121;27;19920;-80
2022/05/04 10:21:40;;;;;;;;;;;15.30;61.60;;;;;;5122712;27;19998;-81
2022/05/04 10:24:07;;;;;;;;;;;15.50;61.20;;;;;;5132892;27;19936;-80
2022/05/04 10:26:34;;;;;;;;;;;16.00;60.90;;;;;;5142889;27;19916;-81
2022/05/04 10:31:53;;;;;;;;;;;16.20;59.80;;;;;;5126021;27;19927;-81
2022/05/04 10:34:19;;;;;;;;;;;16.10;58.20;;;;;;5107490;27;19924;-82
2022/05/04 10:36:45;;;;;;;;;;;16.00;58.90;;;;;;5121460;27;19939;-81
2022/05/04 10:39:18;;;;;;;;;;;16.20;58.50;;;;;;5131896;27;19912;-83
2022/05/04 10:41:44;;;;;;;;;;;16.20;57.60;;;;;;5123964;27;19943;-84
2022/05/04 10:44:09;;;;;;;;;;;16.20;58.10;;;;;;5127545;27;19916;-83
2022/05/04 10:46:37;;;;;;;;;;;16.30;57.70;;;;;;5121363;27;20292;-82
2022/05/04 10:49:04;;;;;;;;;;;16.30;57.30;;;;;;5128147;27;19911;-83
2022/05/04 10:51:31;;;;;;;;;;;16.40;57.30;;;;;;5128912;27;19916;-84
2022/05/04 10:53:59;;;;;;;;;;;16.40;58.30;;;;;;5120318;28;19947;-84
2022/05/04 10:56:26;;;;;;;;;;;16.60;58.10;;;;;;5123757;28;19931;-84
2022/05/04 10:58:52;;;;;;;;;;;16.60;56.30;;;;;;5122475;28;19919;-83
2022/05/04 11:01:34;;;;;;;;;;;16.60;57.40;;;;;;5123193;28;19982;-82
2022/05/04 11:04:04;;;;;;;;;;;16.60;57.20;;;;;;5120642;28;19958;-81
2022/05/04 11:06:31;;;;;;;;;;;16.60;56.60;;;;;;5118702;28;19912;-82
2022/05/04 11:08:59;;;;;;;;;;;16.50;56.60;;;;;;5117816;28;19974;-82
2022/05/04 11:11:25;;;;;;;;;;;16.60;57.10;;;;;;5123683;28;19998;-82
2022/05/04 11:13:51;;;;;;;;;;;16.80;57.20;;;;;;5123406;28;19907;-82
2022/05/04 11:16:16;;;;;;;;;;;16.90;56.00;;;;;;5123007;28;20313;-82
2022/05/04 11:18:42;;;;;;;;;;;16.80;56.00;;;;;;5125040;28;19907;-82
2022/05/04 11:21:14;;;;;;;;;;;16.80;57.50;;;;;;5121699;28;19989;-82
2022/05/04 11:23:44;;;;;;;;;;;17.00;57.20;;;;;;5123396;28;19912;-82
2022/05/04 11:26:16;;;;;;;;;;;17.10;55.60;;;;;;5122973;28;19965;-83
2022/05/04 11:28:41;;;;;;;;;;;17.10;55.70;;;;;;5115258;28;20015;-83
2022/05/04 11:31:09;;;;;;;;;;;17.00;55.20;;;;;;5127334;28;19951;-83
2022/05/04 11:33:34;;;;;;;;;;;17.10;54.70;;;;;;5119777;28;19920;-82
2022/05/04 11:36:00;;;;;;;;;;;16.80;55.60;;;;;;5120802;28;20015;-82
2022/05/04 11:38:26;;;;;;;;;;;16.60;56.00;;;;;;5134443;28;19896;-81
2022/05/04 11:40:52;;;;;;;;;;;16.60;56.30;;;;;;5137622;28;19938;-80
2022/05/04 11:43:28;;;;;;;;;;;16.60;56.40;;;;;;5149280;28;19915;-79
2022/05/04 11:45:54;;;;;;;;;;;16.70;56.00;;;;;;5131990;28;19912;-80
2022/05/04 11:48:21;;;;;;;;;;;16.60;56.30;;;;;;5119002;27;19933;-80
2022/05/04 11:50:47;;;;;;;;;;;16.80;56.70;;;;;;5127080;27;19912;-81
2022/05/04 11:53:13;;;;;;;;;;;17.10;56.30;;;;;;5145201;27;20052;-79
2022/05/04 11:55:39;;;;;;;;;;;17.30;53.90;;;;;;5114981;27;20343;-79
2022/05/04 11:58:09;;;;;;;;;;;17.30;55.20;;;;;;5119201;27;19912;-82
2022/05/04 12:00:35;;;;;;;;;;;17.50;55.90;;;;;;5119144;27;19934;-82
2022/05/04 12:03:01;;;;;;;;;;;17.50;54.20;;;;;;5125579;27;19916;-82
2022/05/04 12:05:26;;;;;;;;;;;17.80;54.60;;;;;;5121286;27;20396;-82
2022/05/04 12:07:52;;;;;;;;;;;17.70;53.50;;;;;;5125031;27;19920;-81
2022/05/04 12:10:17;;;;;;;;;;;18.00;53.40;;;;;;5134646;27;19991;-80
2022/05/04 12:12:43;;;;;;;;;;;18.00;53.00;;;;;;5127693;27;20061;-82
2022/05/04 12:15:10;;;;;;;;;;;18.10;51.80;;;;;;5119814;27;19951;-81
2022/05/04 12:17:36;;;;;;;;;;;17.80;52.90;;;;;;5128932;27;19923;-81
2022/05/04 12:20:02;;;;;;;;;;;17.60;53.40;;;;;;5112872;27;19962;-77
2022/05/04 12:22:28;;;;;;;;;;;17.50;53.60;;;;;;5118851;27;19912;-78
2022/05/04 12:24:54;;;;;;;;;;;17.40;53.10;;;;;;5123906;27;19923;-78
2022/05/04 12:27:19;;;;;;;;;;;17.30;52.60;;;;;;5123336;27;19998;-78
2022/05/04 12:35:13;;;;;;;;;;;17.70;51.30;;;;;;5092001;27;20133;-77
2022/05/04 12:37:39;;;;;;;;;;;17.70;51.70;;;;;;5077201;27;20018;-78
2022/05/04 12:40:05;;;;;;;;;;;17.50;52.10;;;;;;5089180;27;19912;-77
2022/05/04 12:42:31;;;;;;;;;;;17.40;52.40;;;;;;5115360;27;19920;-78
2022/05/04 12:44:58;;;;;;;;;;;17.20;52.70;;;;;;5114981;27;19918;-77
2022/05/04 12:47:24;;;;;;;;;;;17.30;54.00;;;;;;5109900;22;19936;-82
2022/05/04 12:49:50;;;;;;;;;;;17.60;51.80;;;;;;5076758;28;20311;-83
2022/05/04 12:52:15;;;;;;;;;;;17.60;49.20;;;;;;5082914;28;19912;-79
2022/05/04 12:54:41;;;;;;;;;;;17.80;50.10;;;;;;5088781;28;19943;-80
2022/05/04 12:57:07;;;;;;;;;;;17.70;50.10;;;;;;5033110;28;19962;-78
2022/05/04 12:59:32;;;;;;;;;;;17.80;50.00;;;;;;5025333;28;20159;-79
2022/05/04 13:01:58;;;;;;;;;;;18.10;48.60;;;;;;5027396;28;19908;-79
2022/05/04 13:04:23;;;;;;;;;;;17.90;48.30;;;;;;5025471;28;20086;-78
2022/05/04 13:06:49;;;;;;;;;;;17.80;47.90;;;;;;5031537;28;20701;-80
2022/05/04 13:09:14;;;;;;;;;;;17.70;50.10;;;;;;5029708;28;19908;-80
2022/05/04 13:11:41;;;;;;;;;;;17.50;50.90;;;;;;5035128;28;20344;-81
2022/05/04 13:14:06;;;;;;;;;;;17.40;50.70;;;;;;5039581;28;20131;-81
2022/05/04 13:16:32;;;;;;;;;;;17.30;51.10;;;;;;5026530;28;20229;-78
2022/05/04 13:18:57;;;;;;;;;;;17.30;50.80;;;;;;5047549;28;19934;-79
2022/05/04 13:21:23;;;;;;;;;;;17.20;51.70;;;;;;5051285;28;20646;-78
2022/05/04 13:23:49;;;;;;;;;;;17.10;51.40;;;;;;5041427;28;20195;-77
2022/05/04 13:26:17;;;;;;;;;;;17.20;50.70;;;;;;5014468;28;20627;-78
2022/05/04 13:28:43;;;;;;;;;;;17.20;50.40;;;;;;5034895;28;19909;-78
2022/05/04 13:31:09;;;;;;;;;;;17.40;50.00;;;;;;5032139;28;19908;-78
2022/05/04 13:33:35;;;;;;;;;;;17.50;49.10;;;;;;5032513;28;20067;-80
2022/05/04 13:36:01;;;;;;;;;;;17.60;49.30;;;;;;5037984;28;19967;-79
2022/05/04 13:38:27;;;;;;;;;;;17.70;49.00;;;;;;5041109;28;19908;-80
2022/05/04 13:40:53;;;;;;;;;;;17.90;47.40;;;;;;5067895;28;19923;-80
2022/05/04 13:43:19;;;;;;;;;;;18.00;45.10;;;;;;5030180;28;19908;-81
2022/05/04 13:45:46;;;;;;;;;;;17.80;45.70;;;;;;5060782;28;19930;-79
2022/05/04 13:48:11;;;;;;;;;;;17.80;44.80;;;;;;5040361;28;19916;-80
2022/05/04 13:53:21;;;;;;;;;;;18.10;43.10;;;;;;5058149;28;20010;-80
2022/05/04 13:55:51;;;;;;;;;;;18.40;42.60;;;;;;5021182;28;20090;-80
2022/05/04 13:58:18;;;;;;;;;;;18.60;43.70;;;;;;5024543;28;19908;-80
2022/05/04 14:00:44;;;;;;;;;;;19.00;42.20;;;;;;5004818;28;20034;-80
2022/05/04 14:03:10;;;;;;;;;;;19.20;42.20;;;;;;5044388;28;19920;-81
2022/05/04 14:05:35;;;;;;;;;;;19.00;42.90;;;;;;5080147;28;19930;-80
2022/05/04 14:08:01;;;;;;;;;;;18.90;43.10;;;;;;5090000;28;19920;-81
2022/05/04 14:10:26;;;;;;;;;;;18.70;43.60;;;;;;5089202;28;19896;-80
2022/05/04 14:12:52;;;;;;;;;;;18.50;43.30;;;;;;5039731;28;19947;-80
2022/05/04 14:15:17;;;;;;;;;;;18.50;43.80;;;;;;5031450;28;20140;-80
2022/05/04 14:17:44;;;;;;;;;;;18.40;42.40;;;;;;5030414;28;19908;-80
2022/05/04 14:20:10;;;;;;;;;;;18.50;43.70;;;;;;5039736;28;20407;-79
2022/05/04 14:22:36;;;;;;;;;;;18.70;42.60;;;;;;5031587;28;20479;-80
2022/05/04 14:25:02;;;;;;;;;;;18.70;41.00;;;;;;5036910;28;20651;-80
2022/05/04 14:27:31;;;;;;;;;;;18.50;41.70;;;;;;5027021;28;19970;-82
2022/05/04 14:29:57;;;;;;;;;;;18.40;42.40;;;;;;5017634;28;19908;-82
2022/05/04 14:32:23;;;;;;;;;;;18.30;42.50;;;;;;5047831;28;20007;-82
2022/05/04 14:34:48;;;;;;;;;;;18.40;43.10;;;;;;5033243;28;19972;-82
2022/05/04 14:37:14;;;;;;;;;;;18.60;43.10;;;;;;5054192;28;19912;-81
2022/05/04 14:39:40;;;;;;;;;;;18.60;41.80;;;;;;5059708;28;19926;-81
2022/05/04 14:42:06;;;;;;;;;;;18.50;41.20;;;;;;5040147;28;19912;-80
2022/05/04 14:44:31;;;;;;;;;;;18.30;41.80;;;;;;5050666;28;19922;-81
2022/05/04 14:46:57;;;;;;;;;;;18.00;42.40;;;;;;5044758;28;19916;-80
2022/05/04 14:49:26;;;;;;;;;;;18.00;42.40;;;;;;5042270;28;19908;-80
2022/05/04 14:51:52;;;;;;;;;;;18.00;41.10;;;;;;5074232;28;19938;-80
2022/05/04 14:54:17;;;;;;;;;;;18.00;41.00;;;;;;5065914;28;19911;-79
2022/05/04 14:56:43;;;;;;;;;;;17.80;40.50;;;;;;5039232;28;20006;-80
2022/05/04 14:59:09;;;;;;;;;;;17.80;40.50;;;;;;5062930;28;20229;-79
2022/05/04 15:01:34;;;;;;;;;;;17.80;40.80;;;;;;5043933;28;20781;-79
2022/05/04 15:06:58;;;;;;;;;;;17.80;40.10;;;;;;5037702;28;20293;-80
2022/05/04 15:09:23;;;;;;;;;;;17.80;40.10;;;;;;5079441;28;20300;-80
2022/05/04 15:11:49;;;;;;;;;;;17.90;39.90;;;;;;5045075;28;20830;-82
2022/05/04 15:14:15;;;;;;;;;;;17.90;39.00;;;;;;5032042;28;19909;-82
2022/05/04 15:16:40;;;;;;;;;;;17.80;38.80;;;;;;5007718;28;19913;-81
2022/05/04 15:19:06;;;;;;;;;;;17.80;38.90;;;;;;5008267;28;20515;-81
2022/05/04 15:21:32;;;;;;;;;;;17.90;38.60;;;;;;5032453;28;19916;-79
2022/05/04 15:23:57;;;;;;;;;;;18.00;38.90;;;;;;5032385;28;19913;-79
2022/05/04 15:26:24;;;;;;;;;;;18.00;38.60;;;;;;5052700;28;20036;-79
2022/05/04 15:28:50;;;;;;;;;;;18.00;38.60;;;;;;5035264;28;19973;-81
2022/05/04 15:31:16;;;;;;;;;;;18.10;37.80;;;;;;5034529;28;20133;-80
2022/05/04 15:33:42;;;;;;;;;;;18.00;37.20;;;;;;5032124;28;20721;-80
2022/05/04 15:36:07;;;;;;;;;;;17.90;38.50;;;;;;5054121;28;20082;-81
2022/05/04 15:38:33;;;;;;;;;;;18.00;38.40;;;;;;5052907;28;20102;-80
2022/05/04 15:40:59;;;;;;;;;;;18.00;38.50;;;;;;5057907;28;19912;-81
2022/05/04 15:43:25;;;;;;;;;;;18.00;38.60;;;;;;5039186;28;20135;-81